WetterOnline ( https://www.wetteronline.ch )

Wetter aktuell Frankfurt am Main

Aktuelles Wetter: Offenbach (119m)

6-stündlich | Neueste Meldungen
Ortszeit Temperatur Wetter
Do, 23.01. 7:00 -0.0° C bedeckt
Do, 23.01. 1:00 -0.6° C bedeckt
Mi, 22.01. 19:00 -1.9° C bedeckt
Mi, 22.01. 13:00 -2.8° C bedeckt
Mi, 22.01. 7:00 -5.5° C wolkenlos
Mi, 22.01. 1:00 -4.1° C leicht bewölkt
Di, 21.01. 19:00 -1.4° C wolkenlos
Di, 21.01. 13:00 3.3° C fast wolkenlos
Ortszeit Temperatur Wetter
Do, 23.01. 9:00 0.6° C bedeckt
Do, 23.01. 8:50 0.6° C bedeckt
Do, 23.01. 8:40 0.6° C bedeckt
Do, 23.01. 8:30 0.5° C bedeckt
Do, 23.01. 8:20 0.5° C bedeckt
Do, 23.01. 8:10 0.5° C bedeckt
Do, 23.01. 8:00 0.3° C bedeckt
Do, 23.01. 7:30 0.1° C bewölkt
Do, 23.01. 7:00 -0.0° C bedeckt
Do, 23.01. 6:30 -0.0° C bedeckt
Do, 23.01. 6:00 -0.2° C bewölkt
Ortszeit Relative Feuchte Sichtweite
Do, 23.01. 7:00 96% 3.3 km
Do, 23.01. 1:00 95% 3.8 km
Mi, 22.01. 19:00 98% 2.5 km
Mi, 22.01. 13:00 99% 1.9 km
Mi, 22.01. 7:00 97% 11 km
Mi, 22.01. 1:00 97% 9 km
Di, 21.01. 19:00 95% 17 km
Di, 21.01. 13:00 68% 30 km
Ortszeit Relative Feuchte Sichtweite
Do, 23.01. 9:00 95% 5.0 km
Do, 23.01. 8:50 95% -
Do, 23.01. 8:40 95% -
Do, 23.01. 8:30 95% 5.0 km
Do, 23.01. 8:20 95% -
Do, 23.01. 8:10 95% -
Do, 23.01. 8:00 95% 4.7 km
Do, 23.01. 7:30 96% 3.8 km
Do, 23.01. 7:00 96% 3.3 km
Do, 23.01. 6:30 96% 3.7 km
Do, 23.01. 6:00 96% 3.7 km
Ortszeit Niederschlagsmenge Niederschlagsart
Do, 23.01. 7:00 0.0 l/m2 in 12 Std. -
Do, 23.01. 1:00 0.0 l/m2 in 6 Std. -
Mi, 22.01. 19:00 0.0 l/m2 in 12 Std. -
Mi, 22.01. 13:00 0.0 l/m2 in 6 Std. -
Mi, 22.01. 7:00 0.0 l/m2 in 12 Std. -
Mi, 22.01. 1:00 0.0 l/m2 in 6 Std. -
Di, 21.01. 19:00 0.0 l/m2 in 12 Std. -
Di, 21.01. 13:00 0.0 l/m2 in 6 Std. -
Ortszeit Niederschlagsmenge Niederschlagsart
Do, 23.01. 9:00 0.0 l/m2 in 1 Std. -
Do, 23.01. 8:50 keine Meldung -
Do, 23.01. 8:40 keine Meldung -
Do, 23.01. 8:30 0.0 l/m2 in 1 Std. -
Do, 23.01. 8:20 keine Meldung -
Do, 23.01. 8:10 keine Meldung -
Do, 23.01. 8:00 0.0 l/m2 in 1 Std. -
Do, 23.01. 7:30 0.0 l/m2 in 1 Std. -
Do, 23.01. 7:00 0.0 l/m2 in 1 Std. -
Do, 23.01. 6:30 0.0 l/m2 in 1 Std. -
Do, 23.01. 6:00 0.0 l/m2 in 1 Std. -
Ortszeit Stärke Spitze Richtung
km/h Bft. km/h Grad Sektor
Do, 23.01. 7:00 2 1 7 10° N
Do, 23.01. 1:00 2 1 7 80° O
Mi, 22.01. 19:00 0 0 11 - -
Mi, 22.01. 13:00 7 2 14 150° SO
Mi, 22.01. 7:00 4 1 7 20° N
Mi, 22.01. 1:00 2 1 6 100° O
Di, 21.01. 19:00 2 1 11 140° SO
Di, 21.01. 13:00 2 1 11 100° O
Ortszeit Stärke Spitze Richtung
km/h Bft. km/h Grad Sektor
Do, 23.01. 9:00 4 1 11 50° NO
Do, 23.01. 8:50 4 1 - 50° NO
Do, 23.01. 8:40 6 1 - 40° NO
Do, 23.01. 8:30 7 2 11 40° NO
Do, 23.01. 8:20 7 2 - 40° NO
Do, 23.01. 8:10 7 2 - 40° NO
Do, 23.01. 8:00 6 1 9 50° NO
Do, 23.01. 7:30 4 1 7 30° NO
Do, 23.01. 7:00 2 1 6 10° N
Do, 23.01. 6:30 2 1 6 20° N
Do, 23.01. 6:00 4 1 7 20° N
Ortszeit Untergrenze Bedeckung Gattung
total tief tief mittel hoch
Do, 23.01. 7:00 360 m 8/8 8/8 - - -
Do, 23.01. 1:00 420 m 8/8 8/8 - - -
Mi, 22.01. 19:00 90 m 8/8 8/8 - - -
Mi, 22.01. 13:00 60 m 8/8 8/8 - - -
Mi, 22.01. 7:00 90 m 0/8 0/8 - - -
Mi, 22.01. 1:00 9000 m 5/8 0/8 - - -
Di, 21.01. 19:00 - 0/8 0/8 - - -
Di, 21.01. 13:00 10500 m 2/8 0/8 - - -
Ortszeit Bedeckungsgrad in Achtel und Wolkenuntergrenze
Do, 23.01. 9:00 8(420m)
Do, 23.01. 8:50 8(420m)
Do, 23.01. 8:40 8(390m)
Do, 23.01. 8:30 8(360m)
Do, 23.01. 8:20 8(360m)
Do, 23.01. 8:10 8(360m)
Do, 23.01. 8:00 8(360m)
Do, 23.01. 7:30 7(360m)
Do, 23.01. 7:00 8(360m)
Do, 23.01. 6:30 8(360m)
Do, 23.01. 6:00 7(360m)
Ortszeit Luftdruck NN (hPa) Tendenz (hPa in 3 Std.)
Do, 23.01. 7:00 1035 - 1,2
Do, 23.01. 1:00 1038 + 0,3
Mi, 22.01. 19:00 1037 + 0,3
Mi, 22.01. 13:00 1038 + 0,3
Mi, 22.01. 7:00 1038 - 0,3
Mi, 22.01. 1:00 1039 - 1,1
Di, 21.01. 19:00 1040 - 0,8
Di, 21.01. 13:00 1043 - 1,5
Ortszeit Luftdruck NN (hPa) Tendenz (hPa in 3 Std.)
Do, 23.01. 9:00 1035 - 0,2
Do, 23.01. 8:50 1035 keine Meldung
Do, 23.01. 8:40 1035 keine Meldung
Do, 23.01. 8:30 1035 - 0,5
Do, 23.01. 8:20 1035 keine Meldung
Do, 23.01. 8:10 1035 keine Meldung
Do, 23.01. 8:00 1035 - 0,7
Do, 23.01. 7:30 1035 - 1,0
Do, 23.01. 7:00 1035 - 1,2
Do, 23.01. 6:30 1035 - 1,5
Do, 23.01. 6:00 1035 - 1,7
Ortszeit Schneehöhe (cm)
Do, 23.01. 7:00 0
Do, 23.01. 1:00 0
Mi, 22.01. 19:00 0
Mi, 22.01. 13:00 0
Mi, 22.01. 7:00 0
Mi, 22.01. 1:00 0
Di, 21.01. 19:00 0
Di, 21.01. 13:00 0
Ortszeit Schneehöhe (cm)
Do, 23.01. 9:00 0
Do, 23.01. 8:50 0
Do, 23.01. 8:40 0
Do, 23.01. 8:30 0
Do, 23.01. 8:20 0
Do, 23.01. 8:10 0
Do, 23.01. 8:00 0
Do, 23.01. 7:30 0
Do, 23.01. 7:00 0
Do, 23.01. 6:30 0
Do, 23.01. 6:00 0
Link zu dieser Seite / Seite empfehlen

Das Wetter in ...